sensor_id;sensor_type;location;lat;lon;timestamp;temperature;humidity
6106;DHT22;3083;51.508;7.966;2024-02-26T00:00:07;4.40;99.90
6106;DHT22;3083;51.508;7.966;2024-02-26T00:02:35;4.50;99.90
6106;DHT22;3083;51.508;7.966;2024-02-26T00:05:06;4.50;99.90
6106;DHT22;3083;51.508;7.966;2024-02-26T00:07:33;4.50;99.90
6106;DHT22;3083;51.508;7.966;2024-02-26T00:10:00;4.50;99.90
6106;DHT22;3083;51.508;7.966;2024-02-26T00:12:27;4.50;99.90
6106;DHT22;3083;51.508;7.966;2024-02-26T00:14:54;4.60;99.90
6106;DHT22;3083;51.508;7.966;2024-02-26T00:17:23;4.60;99.90
6106;DHT22;3083;51.508;7.966;2024-02-26T00:19:50;4.60;99.90
6106;DHT22;3083;51.508;7.966;2024-02-26T00:22:19;4.60;99.90
6106;DHT22;3083;51.508;7.966;2024-02-26T00:24:48;4.60;99.90
6106;DHT22;3083;51.508;7.966;2024-02-26T00:27:15;4.60;99.90
6106;DHT22;3083;51.508;7.966;2024-02-26T00:29:42;4.60;99.90
6106;DHT22;3083;51.508;7.966;2024-02-26T00:32:09;4.50;99.90
6106;DHT22;3083;51.508;7.966;2024-02-26T00:34:36;4.50;99.90
6106;DHT22;3083;51.508;7.966;2024-02-26T00:37:03;4.50;99.90
6106;DHT22;3083;51.508;7.966;2024-02-26T00:39:31;4.40;99.90
6106;DHT22;3083;51.508;7.966;2024-02-26T00:41:58;4.40;99.90
6106;DHT22;3083;51.508;7.966;2024-02-26T00:44:25;4.30;99.90
6106;DHT22;3083;51.508;7.966;2024-02-26T00:46:52;4.30;99.90
6106;DHT22;3083;51.508;7.966;2024-02-26T00:49:18;4.20;99.90
6106;DHT22;3083;51.508;7.966;2024-02-26T00:51:45;4.10;99.90
6106;DHT22;3083;51.508;7.966;2024-02-26T00:54:12;4.10;99.90
6106;DHT22;3083;51.508;7.966;2024-02-26T00:56:41;4.10;99.90
6106;DHT22;3083;51.508;7.966;2024-02-26T00:59:07;4.00;99.90
6106;DHT22;3083;51.508;7.966;2024-02-26T01:01:34;4.00;99.90
6106;DHT22;3083;51.508;7.966;2024-02-26T01:04:01;4.00;99.90
6106;DHT22;3083;51.508;7.966;2024-02-26T01:06:28;4.00;99.90
6106;DHT22;3083;51.508;7.966;2024-02-26T01:08:55;4.00;99.90
6106;DHT22;3083;51.508;7.966;2024-02-26T01:11:22;4.00;99.90
6106;DHT22;3083;51.508;7.966;2024-02-26T01:13:50;4.10;99.90
6106;DHT22;3083;51.508;7.966;2024-02-26T01:16:21;4.00;99.90
6106;DHT22;3083;51.508;7.966;2024-02-26T01:18:48;4.00;99.90
6106;DHT22;3083;51.508;7.966;2024-02-26T01:21:15;4.00;99.90
6106;DHT22;3083;51.508;7.966;2024-02-26T01:23:42;4.00;99.90
6106;DHT22;3083;51.508;7.966;2024-02-26T01:26:09;4.00;99.90
6106;DHT22;3083;51.508;7.966;2024-02-26T01:28:36;3.90;99.90
6106;DHT22;3083;51.508;7.966;2024-02-26T01:31:04;3.90;99.90
6106;DHT22;3083;51.508;7.966;2024-02-26T01:33:33;3.90;99.90
6106;DHT22;3083;51.508;7.966;2024-02-26T01:36:00;4.00;99.90
6106;DHT22;3083;51.508;7.966;2024-02-26T01:38:27;4.00;99.90
6106;DHT22;3083;51.508;7.966;2024-02-26T01:40:54;4.00;99.90
6106;DHT22;3083;51.508;7.966;2024-02-26T01:43:20;3.90;99.90
6106;DHT22;3083;51.508;7.966;2024-02-26T01:45:47;4.00;99.90
6106;DHT22;3083;51.508;7.966;2024-02-26T01:48:16;4.00;99.90
6106;DHT22;3083;51.508;7.966;2024-02-26T01:50:43;4.00;99.90
6106;DHT22;3083;51.508;7.966;2024-02-26T01:53:10;4.00;99.90
6106;DHT22;3083;51.508;7.966;2024-02-26T01:55:37;4.00;99.90
6106;DHT22;3083;51.508;7.966;2024-02-26T01:58:05;3.90;99.90
6106;DHT22;3083;51.508;7.966;2024-02-26T02:00:32;3.90;99.90
6106;DHT22;3083;51.508;7.966;2024-02-26T02:02:59;3.90;99.90
6106;DHT22;3083;51.508;7.966;2024-02-26T02:05:28;3.90;99.90
6106;DHT22;3083;51.508;7.966;2024-02-26T02:07:55;3.80;99.90
6106;DHT22;3083;51.508;7.966;2024-02-26T02:10:22;3.70;99.90
6106;DHT22;3083;51.508;7.966;2024-02-26T02:12:51;3.70;99.90
6106;DHT22;3083;51.508;7.966;2024-02-26T02:15:18;3.60;99.90
6106;DHT22;3083;51.508;7.966;2024-02-26T02:17:45;3.60;99.90
6106;DHT22;3083;51.508;7.966;2024-02-26T02:20:16;3.60;99.90
6106;DHT22;3083;51.508;7.966;2024-02-26T02:22:45;3.50;99.90
6106;DHT22;3083;51.508;7.966;2024-02-26T02:25:12;3.50;99.90
6106;DHT22;3083;51.508;7.966;2024-02-26T02:27:40;3.50;99.90
6106;DHT22;3083;51.508;7.966;2024-02-26T02:30:08;3.40;99.90
6106;DHT22;3083;51.508;7.966;2024-02-26T02:32:36;3.40;99.90
6106;DHT22;3083;51.508;7.966;2024-02-26T02:35:04;3.40;99.90
6106;DHT22;3083;51.508;7.966;2024-02-26T02:37:31;3.40;99.90
6106;DHT22;3083;51.508;7.966;2024-02-26T02:40:00;3.50;99.90
6106;DHT22;3083;51.508;7.966;2024-02-26T02:42:27;3.50;99.90
6106;DHT22;3083;51.508;7.966;2024-02-26T02:44:54;3.40;99.90
6106;DHT22;3083;51.508;7.966;2024-02-26T02:47:21;3.40;99.90
6106;DHT22;3083;51.508;7.966;2024-02-26T02:49:47;3.40;99.90
6106;DHT22;3083;51.508;7.966;2024-02-26T02:52:14;3.40;99.90
6106;DHT22;3083;51.508;7.966;2024-02-26T02:54:41;3.40;99.90
6106;DHT22;3083;51.508;7.966;2024-02-26T02:57:10;3.40;99.90
6106;DHT22;3083;51.508;7.966;2024-02-26T02:59:37;3.40;99.90
6106;DHT22;3083;51.508;7.966;2024-02-26T03:02:04;3.50;99.90
6106;DHT22;3083;51.508;7.966;2024-02-26T03:04:32;3.50;99.90
6106;DHT22;3083;51.508;7.966;2024-02-26T03:06:59;3.40;99.90
6106;DHT22;3083;51.508;7.966;2024-02-26T03:09:26;3.40;99.90
6106;DHT22;3083;51.508;7.966;2024-02-26T03:11:53;3.40;99.90
6106;DHT22;3083;51.508;7.966;2024-02-26T03:14:21;3.40;99.90
6106;DHT22;3083;51.508;7.966;2024-02-26T03:16:48;3.40;99.90
6106;DHT22;3083;51.508;7.966;2024-02-26T03:19:15;3.40;99.90
6106;DHT22;3083;51.508;7.966;2024-02-26T03:21:42;3.40;99.90
6106;DHT22;3083;51.508;7.966;2024-02-26T03:24:09;3.50;99.90
6106;DHT22;3083;51.508;7.966;2024-02-26T03:26:37;3.50;99.90
6106;DHT22;3083;51.508;7.966;2024-02-26T03:29:04;3.50;99.90
6106;DHT22;3083;51.508;7.966;2024-02-26T03:31:33;3.40;99.90
6106;DHT22;3083;51.508;7.966;2024-02-26T03:34:00;3.40;99.90
6106;DHT22;3083;51.508;7.966;2024-02-26T03:36:26;3.40;99.90
6106;DHT22;3083;51.508;7.966;2024-02-26T03:38:53;3.40;99.90
6106;DHT22;3083;51.508;7.966;2024-02-26T03:41:20;3.40;99.90
6106;DHT22;3083;51.508;7.966;2024-02-26T03:43:47;3.40;99.90
6106;DHT22;3083;51.508;7.966;2024-02-26T03:46:14;3.40;99.90
6106;DHT22;3083;51.508;7.966;2024-02-26T03:48:42;3.40;99.90
6106;DHT22;3083;51.508;7.966;2024-02-26T03:51:09;3.50;99.90
6106;DHT22;3083;51.508;7.966;2024-02-26T03:53:36;3.50;99.90
6106;DHT22;3083;51.508;7.966;2024-02-26T03:56:04;3.50;99.90
6106;DHT22;3083;51.508;7.966;2024-02-26T03:58:31;3.50;99.90
6106;DHT22;3083;51.508;7.966;2024-02-26T04:00:58;3.40;99.90
6106;DHT22;3083;51.508;7.966;2024-02-26T04:03:25;3.40;99.90
6106;DHT22;3083;51.508;7.966;2024-02-26T04:05:53;3.40;99.90
6106;DHT22;3083;51.508;7.966;2024-02-26T04:08:20;3.40;99.90
6106;DHT22;3083;51.508;7.966;2024-02-26T04:10:48;3.40;99.90
6106;DHT22;3083;51.508;7.966;2024-02-26T04:13:14;3.50;99.90
6106;DHT22;3083;51.508;7.966;2024-02-26T04:15:41;3.50;99.90
6106;DHT22;3083;51.508;7.966;2024-02-26T04:18:08;3.50;99.90
6106;DHT22;3083;51.508;7.966;2024-02-26T04:20:35;3.50;99.90
6106;DHT22;3083;51.508;7.966;2024-02-26T04:23:04;3.50;99.90
6106;DHT22;3083;51.508;7.966;2024-02-26T04:25:31;3.60;99.90
6106;DHT22;3083;51.508;7.966;2024-02-26T04:27:59;3.60;99.90
6106;DHT22;3083;51.508;7.966;2024-02-26T04:30:26;3.50;99.90
6106;DHT22;3083;51.508;7.966;2024-02-26T04:32:53;3.50;99.90
6106;DHT22;3083;51.508;7.966;2024-02-26T04:35:19;3.60;99.90
6106;DHT22;3083;51.508;7.966;2024-02-26T04:37:46;3.50;99.90
6106;DHT22;3083;51.508;7.966;2024-02-26T04:40:15;3.60;99.90
6106;DHT22;3083;51.508;7.966;2024-02-26T04:42:42;3.60;99.90
6106;DHT22;3083;51.508;7.966;2024-02-26T04:45:09;3.60;99.90
6106;DHT22;3083;51.508;7.966;2024-02-26T04:47:36;3.60;99.90
6106;DHT22;3083;51.508;7.966;2024-02-26T04:50:03;3.70;99.90
6106;DHT22;3083;51.508;7.966;2024-02-26T04:52:32;3.80;99.90
6106;DHT22;3083;51.508;7.966;2024-02-26T04:54:59;3.80;99.90
6106;DHT22;3083;51.508;7.966;2024-02-26T04:57:27;3.80;99.90
6106;DHT22;3083;51.508;7.966;2024-02-26T04:59:54;3.80;99.90
6106;DHT22;3083;51.508;7.966;2024-02-26T05:02:21;3.80;99.90
6106;DHT22;3083;51.508;7.966;2024-02-26T05:04:51;3.90;99.90
6106;DHT22;3083;51.508;7.966;2024-02-26T05:07:18;3.90;99.90
6106;DHT22;3083;51.508;7.966;2024-02-26T05:09:46;3.90;99.90
6106;DHT22;3083;51.508;7.966;2024-02-26T05:12:15;3.90;99.90
6106;DHT22;3083;51.508;7.966;2024-02-26T05:14:43;3.90;99.90
6106;DHT22;3083;51.508;7.966;2024-02-26T05:17:10;3.90;99.90
6106;DHT22;3083;51.508;7.966;2024-02-26T05:19:37;4.00;99.90
6106;DHT22;3083;51.508;7.966;2024-02-26T05:22:04;4.00;99.90
6106;DHT22;3083;51.508;7.966;2024-02-26T05:24:31;4.00;99.90
6106;DHT22;3083;51.508;7.966;2024-02-26T05:27:00;4.10;99.90
6106;DHT22;3083;51.508;7.966;2024-02-26T05:29:27;4.10;99.90
6106;DHT22;3083;51.508;7.966;2024-02-26T05:31:55;4.10;99.90
6106;DHT22;3083;51.508;7.966;2024-02-26T05:34:22;4.10;99.90
6106;DHT22;3083;51.508;7.966;2024-02-26T05:36:49;4.10;99.90
6106;DHT22;3083;51.508;7.966;2024-02-26T05:39:16;4.10;99.90
6106;DHT22;3083;51.508;7.966;2024-02-26T05:41:43;4.20;99.90
6106;DHT22;3083;51.508;7.966;2024-02-26T05:44:11;4.20;99.90
6106;DHT22;3083;51.508;7.966;2024-02-26T05:46:38;4.20;99.90
6106;DHT22;3083;51.508;7.966;2024-02-26T05:49:06;4.20;99.90
6106;DHT22;3083;51.508;7.966;2024-02-26T05:51:33;4.30;99.90
6106;DHT22;3083;51.508;7.966;2024-02-26T05:54:00;4.20;99.90
6106;DHT22;3083;51.508;7.966;2024-02-26T05:56:27;4.20;99.90
6106;DHT22;3083;51.508;7.966;2024-02-26T05:58:54;4.20;99.90
6106;DHT22;3083;51.508;7.966;2024-02-26T06:01:21;4.30;99.90
6106;DHT22;3083;51.508;7.966;2024-02-26T06:03:48;4.30;99.90
6106;DHT22;3083;51.508;7.966;2024-02-26T06:06:16;4.20;99.90
6106;DHT22;3083;51.508;7.966;2024-02-26T06:08:43;4.30;99.90
6106;DHT22;3083;51.508;7.966;2024-02-26T06:11:10;4.30;99.90
6106;DHT22;3083;51.508;7.966;2024-02-26T06:13:37;4.30;99.90
6106;DHT22;3083;51.508;7.966;2024-02-26T06:16:04;4.30;99.90
6106;DHT22;3083;51.508;7.966;2024-02-26T06:18:32;4.30;99.90
6106;DHT22;3083;51.508;7.966;2024-02-26T06:20:59;4.30;99.90
6106;DHT22;3083;51.508;7.966;2024-02-26T06:23:27;4.30;99.90
6106;DHT22;3083;51.508;7.966;2024-02-26T06:25:54;4.30;99.90
6106;DHT22;3083;51.508;7.966;2024-02-26T06:28:21;4.30;99.90
6106;DHT22;3083;51.508;7.966;2024-02-26T06:30:48;4.30;99.90
6106;DHT22;3083;51.508;7.966;2024-02-26T06:33:16;4.30;99.90
6106;DHT22;3083;51.508;7.966;2024-02-26T06:35:42;4.20;99.90
6106;DHT22;3083;51.508;7.966;2024-02-26T06:38:09;4.30;99.90
6106;DHT22;3083;51.508;7.966;2024-02-26T06:40:39;4.30;99.90
6106;DHT22;3083;51.508;7.966;2024-02-26T06:43:06;4.20;99.90
6106;DHT22;3083;51.508;7.966;2024-02-26T06:45:33;4.30;99.90
6106;DHT22;3083;51.508;7.966;2024-02-26T06:48:00;4.30;99.90
6106;DHT22;3083;51.508;7.966;2024-02-26T06:50:28;4.30;99.90
6106;DHT22;3083;51.508;7.966;2024-02-26T06:52:55;4.30;99.90
6106;DHT22;3083;51.508;7.966;2024-02-26T06:55:22;4.30;99.90
6106;DHT22;3083;51.508;7.966;2024-02-26T06:57:50;4.30;99.90
6106;DHT22;3083;51.508;7.966;2024-02-26T07:00:17;4.40;99.90
6106;DHT22;3083;51.508;7.966;2024-02-26T07:02:44;4.40;99.90
6106;DHT22;3083;51.508;7.966;2024-02-26T07:05:11;4.40;99.90
6106;DHT22;3083;51.508;7.966;2024-02-26T07:07:38;4.50;99.90
6106;DHT22;3083;51.508;7.966;2024-02-26T07:10:06;4.60;99.90
6106;DHT22;3083;51.508;7.966;2024-02-26T07:12:33;4.60;99.90
6106;DHT22;3083;51.508;7.966;2024-02-26T07:15:01;4.60;99.90
6106;DHT22;3083;51.508;7.966;2024-02-26T07:17:28;4.70;99.90
6106;DHT22;3083;51.508;7.966;2024-02-26T07:19:55;4.70;99.90
6106;DHT22;3083;51.508;7.966;2024-02-26T07:22:22;4.70;99.90
6106;DHT22;3083;51.508;7.966;2024-02-26T07:24:49;4.70;99.90
6106;DHT22;3083;51.508;7.966;2024-02-26T07:27:17;4.70;99.90
6106;DHT22;3083;51.508;7.966;2024-02-26T07:29:44;4.80;99.90
6106;DHT22;3083;51.508;7.966;2024-02-26T07:32:13;4.80;99.90
6106;DHT22;3083;51.508;7.966;2024-02-26T07:34:41;4.80;99.90
6106;DHT22;3083;51.508;7.966;2024-02-26T07:37:10;4.80;99.90
6106;DHT22;3083;51.508;7.966;2024-02-26T07:39:37;4.90;99.90
6106;DHT22;3083;51.508;7.966;2024-02-26T07:42:04;4.90;99.90
6106;DHT22;3083;51.508;7.966;2024-02-26T07:44:31;4.90;99.90
6106;DHT22;3083;51.508;7.966;2024-02-26T07:46:57;5.00;99.90
6106;DHT22;3083;51.508;7.966;2024-02-26T07:49:26;4.90;99.90
6106;DHT22;3083;51.508;7.966;2024-02-26T07:51:52;5.00;99.90
6106;DHT22;3083;51.508;7.966;2024-02-26T07:54:20;5.00;99.90
6106;DHT22;3083;51.508;7.966;2024-02-26T07:56:47;5.00;99.90
6106;DHT22;3083;51.508;7.966;2024-02-26T07:59:14;5.00;99.90
6106;DHT22;3083;51.508;7.966;2024-02-26T08:01:40;5.10;99.90
6106;DHT22;3083;51.508;7.966;2024-02-26T08:04:07;5.10;99.90
6106;DHT22;3083;51.508;7.966;2024-02-26T08:06:36;5.20;99.90
6106;DHT22;3083;51.508;7.966;2024-02-26T08:09:02;5.20;99.90
6106;DHT22;3083;51.508;7.966;2024-02-26T08:11:30;5.20;99.90
6106;DHT22;3083;51.508;7.966;2024-02-26T08:13:56;5.30;99.90
6106;DHT22;3083;51.508;7.966;2024-02-26T08:16:24;5.40;99.90
6106;DHT22;3083;51.508;7.966;2024-02-26T08:18:51;5.30;99.90
6106;DHT22;3083;51.508;7.966;2024-02-26T08:21:18;5.40;99.90
6106;DHT22;3083;51.508;7.966;2024-02-26T08:23:47;5.40;99.90
6106;DHT22;3083;51.508;7.966;2024-02-26T08:26:13;5.40;99.90
6106;DHT22;3083;51.508;7.966;2024-02-26T08:28:40;5.50;99.90
6106;DHT22;3083;51.508;7.966;2024-02-26T08:31:07;5.50;99.90
6106;DHT22;3083;51.508;7.966;2024-02-26T08:33:34;5.50;99.90
6106;DHT22;3083;51.508;7.966;2024-02-26T08:36:04;5.50;99.90
6106;DHT22;3083;51.508;7.966;2024-02-26T08:38:31;5.60;99.90
6106;DHT22;3083;51.508;7.966;2024-02-26T08:41:01;5.70;99.90
6106;DHT22;3083;51.508;7.966;2024-02-26T08:43:28;5.60;99.90
6106;DHT22;3083;51.508;7.966;2024-02-26T08:45:56;5.70;99.90
6106;DHT22;3083;51.508;7.966;2024-02-26T08:48:23;5.70;99.90
6106;DHT22;3083;51.508;7.966;2024-02-26T08:50:49;5.70;99.90
6106;DHT22;3083;51.508;7.966;2024-02-26T08:53:16;5.70;99.90
6106;DHT22;3083;51.508;7.966;2024-02-26T08:55:43;5.80;99.90
6106;DHT22;3083;51.508;7.966;2024-02-26T08:58:12;5.80;99.90
6106;DHT22;3083;51.508;7.966;2024-02-26T09:00:38;5.70;99.90
6106;DHT22;3083;51.508;7.966;2024-02-26T09:03:06;5.80;99.90
6106;DHT22;3083;51.508;7.966;2024-02-26T09:05:32;5.80;99.90
6106;DHT22;3083;51.508;7.966;2024-02-26T09:08:01;5.90;99.90
6106;DHT22;3083;51.508;7.966;2024-02-26T09:10:28;5.90;99.90
6106;DHT22;3083;51.508;7.966;2024-02-26T09:12:55;5.90;99.90
6106;DHT22;3083;51.508;7.966;2024-02-26T09:15:23;6.00;99.90
6106;DHT22;3083;51.508;7.966;2024-02-26T09:17:50;6.00;99.90
6106;DHT22;3083;51.508;7.966;2024-02-26T09:20:17;6.00;99.90
6106;DHT22;3083;51.508;7.966;2024-02-26T09:22:45;6.10;99.90
6106;DHT22;3083;51.508;7.966;2024-02-26T09:25:12;6.10;99.90
6106;DHT22;3083;51.508;7.966;2024-02-26T09:27:41;6.20;99.90
6106;DHT22;3083;51.508;7.966;2024-02-26T09:30:09;6.30;99.90
6106;DHT22;3083;51.508;7.966;2024-02-26T09:32:39;6.40;99.90
6106;DHT22;3083;51.508;7.966;2024-02-26T09:35:06;6.40;99.90
6106;DHT22;3083;51.508;7.966;2024-02-26T09:37:33;6.50;99.90
6106;DHT22;3083;51.508;7.966;2024-02-26T09:40:03;6.50;99.90
6106;DHT22;3083;51.508;7.966;2024-02-26T09:42:32;6.60;99.90
6106;DHT22;3083;51.508;7.966;2024-02-26T09:45:00;6.70;99.90
6106;DHT22;3083;51.508;7.966;2024-02-26T09:47:31;6.70;99.90
6106;DHT22;3083;51.508;7.966;2024-02-26T09:50:00;6.80;99.90
6106;DHT22;3083;51.508;7.966;2024-02-26T09:52:28;6.80;99.90
6106;DHT22;3083;51.508;7.966;2024-02-26T09:54:57;6.90;99.90
6106;DHT22;3083;51.508;7.966;2024-02-26T09:57:25;6.90;99.90
6106;DHT22;3083;51.508;7.966;2024-02-26T09:59:53;6.90;99.90
6106;DHT22;3083;51.508;7.966;2024-02-26T10:02:25;6.90;99.90
6106;DHT22;3083;51.508;7.966;2024-02-26T10:04:53;6.90;99.90
6106;DHT22;3083;51.508;7.966;2024-02-26T10:07:28;7.00;99.90
6106;DHT22;3083;51.508;7.966;2024-02-26T10:09:56;7.00;99.90
6106;DHT22;3083;51.508;7.966;2024-02-26T10:12:24;7.00;99.90
6106;DHT22;3083;51.508;7.966;2024-02-26T10:14:53;7.10;99.90
6106;DHT22;3083;51.508;7.966;2024-02-26T10:17:20;7.10;99.90
6106;DHT22;3083;51.508;7.966;2024-02-26T10:19:47;7.20;99.90
6106;DHT22;3083;51.508;7.966;2024-02-26T10:22:14;7.30;99.90
6106;DHT22;3083;51.508;7.966;2024-02-26T10:24:42;7.30;99.90
6106;DHT22;3083;51.508;7.966;2024-02-26T10:27:09;7.40;99.90
6106;DHT22;3083;51.508;7.966;2024-02-26T10:29:36;7.40;99.90
6106;DHT22;3083;51.508;7.966;2024-02-26T10:32:03;7.50;99.90
6106;DHT22;3083;51.508;7.966;2024-02-26T10:34:31;7.60;99.90
6106;DHT22;3083;51.508;7.966;2024-02-26T10:36:58;7.60;99.90
6106;DHT22;3083;51.508;7.966;2024-02-26T10:39:28;7.70;99.90
6106;DHT22;3083;51.508;7.966;2024-02-26T10:41:56;7.70;99.90
6106;DHT22;3083;51.508;7.966;2024-02-26T10:44:25;7.70;99.90
6106;DHT22;3083;51.508;7.966;2024-02-26T10:46:52;7.80;99.90
6106;DHT22;3083;51.508;7.966;2024-02-26T10:49:20;7.80;99.90
6106;DHT22;3083;51.508;7.966;2024-02-26T10:51:54;7.80;99.90
6106;DHT22;3083;51.508;7.966;2024-02-26T10:54:22;7.90;99.90
6106;DHT22;3083;51.508;7.966;2024-02-26T10:56:51;7.90;99.90
6106;DHT22;3083;51.508;7.966;2024-02-26T10:59:20;8.00;99.90
6106;DHT22;3083;51.508;7.966;2024-02-26T11:01:48;8.00;99.90
6106;DHT22;3083;51.508;7.966;2024-02-26T11:04:16;8.10;99.90
6106;DHT22;3083;51.508;7.966;2024-02-26T11:06:44;8.10;99.90
6106;DHT22;3083;51.508;7.966;2024-02-26T11:09:13;8.20;99.90
6106;DHT22;3083;51.508;7.966;2024-02-26T11:11:42;8.30;99.90
6106;DHT22;3083;51.508;7.966;2024-02-26T11:14:11;8.30;99.90
6106;DHT22;3083;51.508;7.966;2024-02-26T11:16:44;8.40;99.90
6106;DHT22;3083;51.508;7.966;2024-02-26T11:19:11;8.40;99.90
6106;DHT22;3083;51.508;7.966;2024-02-26T11:21:39;8.40;99.90
6106;DHT22;3083;51.508;7.966;2024-02-26T11:24:09;8.40;99.90
6106;DHT22;3083;51.508;7.966;2024-02-26T11:26:41;8.40;99.90
6106;DHT22;3083;51.508;7.966;2024-02-26T11:29:13;8.40;99.90
6106;DHT22;3083;51.508;7.966;2024-02-26T11:31:40;8.40;99.90
6106;DHT22;3083;51.508;7.966;2024-02-26T11:34:09;8.40;99.90
6106;DHT22;3083;51.508;7.966;2024-02-26T11:36:37;8.40;99.90
6106;DHT22;3083;51.508;7.966;2024-02-26T11:39:05;8.30;99.90
6106;DHT22;3083;51.508;7.966;2024-02-26T11:41:33;8.30;99.90
6106;DHT22;3083;51.508;7.966;2024-02-26T11:44:01;8.20;99.90
6106;DHT22;3083;51.508;7.966;2024-02-26T11:46:30;8.20;99.90
6106;DHT22;3083;51.508;7.966;2024-02-26T11:49:02;8.10;99.90
6106;DHT22;3083;51.508;7.966;2024-02-26T11:51:34;8.10;99.90
6106;DHT22;3083;51.508;7.966;2024-02-26T11:54:01;8.00;99.90
6106;DHT22;3083;51.508;7.966;2024-02-26T11:56:28;7.90;99.90
6106;DHT22;3083;51.508;7.966;2024-02-26T11:59:00;7.80;99.90
6106;DHT22;3083;51.508;7.966;2024-02-26T12:01:41;7.80;99.90
6106;DHT22;3083;51.508;7.966;2024-02-26T12:04:13;7.80;99.90
6106;DHT22;3083;51.508;7.966;2024-02-26T12:06:45;7.80;99.90
6106;DHT22;3083;51.508;7.966;2024-02-26T12:09:12;7.80;99.90
6106;DHT22;3083;51.508;7.966;2024-02-26T12:11:40;7.80;99.90
6106;DHT22;3083;51.508;7.966;2024-02-26T12:14:09;7.80;99.90
6106;DHT22;3083;51.508;7.966;2024-02-26T12:16:37;7.80;99.90
6106;DHT22;3083;51.508;7.966;2024-02-26T12:19:08;7.80;99.90
6106;DHT22;3083;51.508;7.966;2024-02-26T12:21:36;7.90;99.90
6106;DHT22;3083;51.508;7.966;2024-02-26T12:24:12;7.90;99.90
6106;DHT22;3083;51.508;7.966;2024-02-26T12:26:39;7.90;99.90
6106;DHT22;3083;51.508;7.966;2024-02-26T12:29:07;7.90;99.90
6106;DHT22;3083;51.508;7.966;2024-02-26T12:31:34;7.90;99.90
6106;DHT22;3083;51.508;7.966;2024-02-26T12:34:03;7.90;99.90
6106;DHT22;3083;51.508;7.966;2024-02-26T12:36:30;7.90;99.90
6106;DHT22;3083;51.508;7.966;2024-02-26T12:38:57;7.90;99.90
6106;DHT22;3083;51.508;7.966;2024-02-26T12:41:25;8.00;99.90
6106;DHT22;3083;51.508;7.966;2024-02-26T12:43:53;7.90;99.90
6106;DHT22;3083;51.508;7.966;2024-02-26T12:46:20;8.00;99.90
6106;DHT22;3083;51.508;7.966;2024-02-26T12:48:47;8.00;99.90
6106;DHT22;3083;51.508;7.966;2024-02-26T12:51:16;7.90;99.90
6106;DHT22;3083;51.508;7.966;2024-02-26T12:53:44;7.90;99.90
6106;DHT22;3083;51.508;7.966;2024-02-26T12:56:11;7.90;99.90
6106;DHT22;3083;51.508;7.966;2024-02-26T12:58:39;7.80;99.90
6106;DHT22;3083;51.508;7.966;2024-02-26T13:01:07;7.90;99.90
6106;DHT22;3083;51.508;7.966;2024-02-26T13:03:40;7.90;99.90
6106;DHT22;3083;51.508;7.966;2024-02-26T13:06:08;7.90;99.90
6106;DHT22;3083;51.508;7.966;2024-02-26T13:08:35;8.00;99.90
6106;DHT22;3083;51.508;7.966;2024-02-26T13:11:03;8.10;99.90
6106;DHT22;3083;51.508;7.966;2024-02-26T13:13:29;8.30;99.90
6106;DHT22;3083;51.508;7.966;2024-02-26T13:16:03;8.40;99.90
6106;DHT22;3083;51.508;7.966;2024-02-26T13:18:32;8.60;99.90
6106;DHT22;3083;51.508;7.966;2024-02-26T13:21:10;8.80;99.90
6106;DHT22;3083;51.508;7.966;2024-02-26T13:23:37;8.90;99.90
6106;DHT22;3083;51.508;7.966;2024-02-26T13:26:05;9.10;99.90
6106;DHT22;3083;51.508;7.966;2024-02-26T13:28:32;9.20;99.90
6106;DHT22;3083;51.508;7.966;2024-02-26T13:31:00;9.30;99.90
6106;DHT22;3083;51.508;7.966;2024-02-26T13:33:30;9.50;99.90
6106;DHT22;3083;51.508;7.966;2024-02-26T13:35:58;9.50;99.90
6106;DHT22;3083;51.508;7.966;2024-02-26T13:38:25;9.60;99.90
6106;DHT22;3083;51.508;7.966;2024-02-26T13:40:53;9.50;99.90
6106;DHT22;3083;51.508;7.966;2024-02-26T13:43:20;9.50;99.90
6106;DHT22;3083;51.508;7.966;2024-02-26T13:45:47;9.40;99.90
6106;DHT22;3083;51.508;7.966;2024-02-26T13:48:14;9.30;99.90
6106;DHT22;3083;51.508;7.966;2024-02-26T13:50:43;9.20;99.90
6106;DHT22;3083;51.508;7.966;2024-02-26T13:53:11;9.20;99.90
6106;DHT22;3083;51.508;7.966;2024-02-26T13:55:39;9.10;99.90
6106;DHT22;3083;51.508;7.966;2024-02-26T13:58:08;9.10;99.90
6106;DHT22;3083;51.508;7.966;2024-02-26T14:00:35;9.10;99.90
6106;DHT22;3083;51.508;7.966;2024-02-26T14:03:03;9.00;99.90
6106;DHT22;3083;51.508;7.966;2024-02-26T14:05:30;9.00;99.90
6106;DHT22;3083;51.508;7.966;2024-02-26T14:07:58;9.00;99.90
6106;DHT22;3083;51.508;7.966;2024-02-26T14:10:25;9.00;99.90
6106;DHT22;3083;51.508;7.966;2024-02-26T14:12:52;9.00;99.90
6106;DHT22;3083;51.508;7.966;2024-02-26T14:15:19;8.90;99.90
6106;DHT22;3083;51.508;7.966;2024-02-26T14:17:46;8.90;99.90
6106;DHT22;3083;51.508;7.966;2024-02-26T14:20:19;8.90;99.90
6106;DHT22;3083;51.508;7.966;2024-02-26T14:22:46;8.90;99.90
6106;DHT22;3083;51.508;7.966;2024-02-26T14:25:15;8.90;99.90
6106;DHT22;3083;51.508;7.966;2024-02-26T14:27:42;8.90;99.90
6106;DHT22;3083;51.508;7.966;2024-02-26T14:30:09;8.80;99.90
6106;DHT22;3083;51.508;7.966;2024-02-26T14:32:36;8.80;99.90
6106;DHT22;3083;51.508;7.966;2024-02-26T14:35:05;8.80;99.90
6106;DHT22;3083;51.508;7.966;2024-02-26T14:37:33;8.80;99.90
6106;DHT22;3083;51.508;7.966;2024-02-26T14:40:00;8.70;99.90
6106;DHT22;3083;51.508;7.966;2024-02-26T14:42:29;8.80;99.90
6106;DHT22;3083;51.508;7.966;2024-02-26T14:44:56;8.70;99.90
6106;DHT22;3083;51.508;7.966;2024-02-26T14:47:23;8.80;99.90
6106;DHT22;3083;51.508;7.966;2024-02-26T14:49:50;8.80;99.90
6106;DHT22;3083;51.508;7.966;2024-02-26T14:52:17;8.90;99.90
6106;DHT22;3083;51.508;7.966;2024-02-26T14:54:44;8.80;99.90
6106;DHT22;3083;51.508;7.966;2024-02-26T14:57:11;8.90;99.90
6106;DHT22;3083;51.508;7.966;2024-02-26T14:59:40;8.90;99.90
6106;DHT22;3083;51.508;7.966;2024-02-26T15:02:07;8.90;99.90
6106;DHT22;3083;51.508;7.966;2024-02-26T15:04:36;8.90;99.90
6106;DHT22;3083;51.508;7.966;2024-02-26T15:07:03;8.90;99.90
6106;DHT22;3083;51.508;7.966;2024-02-26T15:09:30;8.90;99.90
6106;DHT22;3083;51.508;7.966;2024-02-26T15:11:57;8.80;99.90
6106;DHT22;3083;51.508;7.966;2024-02-26T15:14:24;8.70;99.90
6106;DHT22;3083;51.508;7.966;2024-02-26T15:16:53;8.70;99.90
6106;DHT22;3083;51.508;7.966;2024-02-26T15:19:20;8.60;99.90
6106;DHT22;3083;51.508;7.966;2024-02-26T15:21:47;8.40;99.90
6106;DHT22;3083;51.508;7.966;2024-02-26T15:24:14;8.30;99.90
6106;DHT22;3083;51.508;7.966;2024-02-26T15:26:43;8.30;99.90
6106;DHT22;3083;51.508;7.966;2024-02-26T15:29:10;8.10;99.90
6106;DHT22;3083;51.508;7.966;2024-02-26T15:31:37;8.00;99.90
6106;DHT22;3083;51.508;7.966;2024-02-26T15:34:05;7.90;99.90
6106;DHT22;3083;51.508;7.966;2024-02-26T15:36:33;7.80;99.90
6106;DHT22;3083;51.508;7.966;2024-02-26T15:39:00;7.80;99.90
6106;DHT22;3083;51.508;7.966;2024-02-26T15:41:28;7.70;99.90
6106;DHT22;3083;51.508;7.966;2024-02-26T15:43:55;7.60;99.90
6106;DHT22;3083;51.508;7.966;2024-02-26T15:46:22;7.60;99.90
6106;DHT22;3083;51.508;7.966;2024-02-26T15:48:49;7.50;99.90
6106;DHT22;3083;51.508;7.966;2024-02-26T15:51:21;7.50;99.90
6106;DHT22;3083;51.508;7.966;2024-02-26T15:53:48;7.40;99.90
6106;DHT22;3083;51.508;7.966;2024-02-26T15:56:15;7.40;99.90
6106;DHT22;3083;51.508;7.966;2024-02-26T15:58:42;7.40;99.90
6106;DHT22;3083;51.508;7.966;2024-02-26T16:01:09;7.40;99.90
6106;DHT22;3083;51.508;7.966;2024-02-26T16:03:37;7.40;99.90
6106;DHT22;3083;51.508;7.966;2024-02-26T16:06:04;7.30;99.90
6106;DHT22;3083;51.508;7.966;2024-02-26T16:08:34;7.30;99.90
6106;DHT22;3083;51.508;7.966;2024-02-26T16:11:00;7.30;99.90
6106;DHT22;3083;51.508;7.966;2024-02-26T16:13:28;7.20;99.90
6106;DHT22;3083;51.508;7.966;2024-02-26T16:16:00;7.20;99.90
6106;DHT22;3083;51.508;7.966;2024-02-26T16:18:27;7.10;99.90